Aviation Digital Data Service (ADDS)

Output produced by METARs form (1744 UTC 03 December 2016)
found at http://aviationweather.gov/adds/metars/
 
KLBE 031720Z 0318/0418 28007KT P6SM OVC021 
     FM040400 25005KT P6SM OVC035 
     FM041700 VRB03KT P6SM BKN120